createdAt,value
2023-02-18T00:01:45.718Z,-0.50
2023-02-18T00:04:52.046Z,-0.67
2023-02-18T00:07:59.974Z,-0.73
2023-02-18T00:11:06.937Z,-1.24
2023-02-18T00:14:15.698Z,-1.83
2023-02-18T00:17:21.783Z,-1.40
2023-02-18T00:20:28.290Z,-1.58
2023-02-18T00:23:36.253Z,-0.59
2023-02-18T00:26:43.125Z,-0.81
2023-02-18T00:29:49.494Z,-0.97
2023-02-18T00:32:55.912Z,-0.80
2023-02-18T00:36:03.893Z,-0.61
2023-02-18T00:39:12.802Z,-0.59
2023-02-18T00:42:18.946Z,-0.85
2023-02-18T00:45:25.369Z,-0.68
2023-02-18T00:48:31.640Z,-1.30
2023-02-18T00:51:38.121Z,-1.53
2023-02-18T00:54:46.083Z,-1.90
2023-02-18T00:57:52.555Z,-1.20
2023-02-18T01:00:59.196Z,-1.71
2023-02-18T01:04:05.829Z,-1.54
2023-02-18T01:07:12.250Z,-2.05
2023-02-18T01:10:19.916Z,-1.53
2023-02-18T01:13:27.345Z,-1.55
2023-02-18T01:16:33.498Z,-1.03
2023-02-18T01:19:39.575Z,-1.57
2023-02-18T01:22:46.169Z,-1.63
2023-02-18T01:25:54.521Z,-1.79
2023-02-18T01:29:00.865Z,-1.85
2023-02-18T01:32:07.536Z,-1.48
2023-02-18T01:35:15.486Z,-1.41
2023-02-18T01:38:21.782Z,-1.46
2023-02-18T01:41:29.386Z,-1.05
2023-02-18T01:44:35.990Z,-1.12
2023-02-18T01:47:41.963Z,-1.12
2023-02-18T01:50:52.367Z,-2.19
2023-02-18T01:54:04.394Z,-1.78
2023-02-18T01:57:15.011Z,-1.56
2023-02-18T02:00:22.787Z,-1.51
2023-02-18T02:03:29.327Z,-1.78
2023-02-18T02:06:35.885Z,-1.40
2023-02-18T02:09:44.062Z,-1.96
2023-02-18T02:13:02.197Z,-1.90
2023-02-18T02:16:14.300Z,-2.37
2023-02-18T02:19:56.619Z,-1.92
2023-02-18T02:23:47.881Z,-2.08
2023-02-18T02:27:07.066Z,-1.72
2023-02-18T02:30:48.301Z,-1.88
2023-02-18T02:34:35.041Z,-1.36
2023-02-18T02:37:50.694Z,-1.32
2023-02-18T02:41:03.776Z,-1.73
2023-02-18T02:44:20.316Z,-1.48
2023-02-18T02:47:35.078Z,-1.75
2023-02-18T02:50:47.444Z,-2.70
2023-02-18T02:53:53.569Z,-2.04
2023-02-18T02:57:31.644Z,-2.42
2023-02-18T03:00:51.754Z,-2.51
2023-02-18T03:04:28.719Z,-1.80
2023-02-18T03:07:56.445Z,-1.58
2023-02-18T03:11:07.084Z,-2.13
2023-02-18T03:14:22.906Z,-2.05
2023-02-18T03:17:34.031Z,-2.41
2023-02-18T03:20:44.774Z,-1.67
2023-02-18T03:23:57.603Z,-1.41
2023-02-18T03:27:11.109Z,-1.51
2023-02-18T03:30:25.763Z,-1.49
2023-02-18T03:33:38.346Z,-1.31
2023-02-18T03:36:45.586Z,-1.87
2023-02-18T03:39:57.658Z,-2.28
2023-02-18T03:43:03.977Z,-2.63
2023-02-18T03:46:10.438Z,-2.01
2023-02-18T03:49:17.090Z,-2.23
2023-02-18T03:52:23.179Z,-2.63
2023-02-18T03:55:30.767Z,-2.26
2023-02-18T03:58:36.762Z,-2.50
2023-02-18T04:01:43.032Z,-1.88
2023-02-18T04:04:49.229Z,-1.59
2023-02-18T04:07:55.353Z,-2.09
2023-02-18T04:11:02.826Z,-2.75
2023-02-18T04:14:09.635Z,-2.91
2023-02-18T04:17:15.825Z,-2.66
2023-02-18T04:20:22.681Z,-2.96
2023-02-18T04:23:28.997Z,-2.47
2023-02-18T04:26:36.703Z,-2.26
2023-02-18T04:29:42.464Z,-2.97
2023-02-18T04:32:48.694Z,-2.78
2023-02-18T04:35:55.152Z,-2.35
2023-02-18T04:39:01.469Z,-2.54
2023-02-18T04:42:10.537Z,-2.34
2023-02-18T04:45:17.110Z,-2.01
2023-02-18T04:48:23.712Z,-2.48
2023-02-18T04:51:29.922Z,-2.63
2023-02-18T04:54:36.374Z,-2.29
2023-02-18T04:57:43.695Z,-1.98
2023-02-18T05:00:50.200Z,-2.38
2023-02-18T05:03:56.232Z,-2.93
2023-02-18T05:07:02.260Z,-3.15
2023-02-18T05:10:10.040Z,-3.48
2023-02-18T05:13:18.129Z,-3.32
2023-02-18T05:16:24.322Z,-2.54
2023-02-18T05:19:30.338Z,-2.69
2023-02-18T05:22:36.714Z,-2.20
2023-02-18T05:25:42.726Z,-2.42
2023-02-18T05:28:50.232Z,-1.93
2023-02-18T05:31:56.423Z,-2.08
2023-02-18T05:35:02.386Z,-1.89
2023-02-18T05:38:08.914Z,-1.53
2023-02-18T05:41:15.213Z,-2.13
2023-02-18T05:44:32.021Z,-2.48
2023-02-18T05:47:38.352Z,-2.35
2023-02-18T05:50:44.281Z,-2.09
2023-02-18T05:53:50.581Z,-1.55
2023-02-18T05:56:57.322Z,-1.68
2023-02-18T06:00:06.347Z,-1.24
2023-02-18T06:03:12.412Z,-0.89
2023-02-18T06:06:18.731Z,-1.21
2023-02-18T06:09:24.863Z,-1.88
2023-02-18T06:12:31.591Z,-1.77
2023-02-18T06:15:39.681Z,-1.19
2023-02-18T06:18:46.104Z,-0.97
2023-02-18T06:21:52.794Z,-0.82
2023-02-18T06:24:59.267Z,-0.63
2023-02-18T06:28:05.870Z,-0.24
2023-02-18T06:31:13.610Z,0.03
2023-02-18T06:34:20.309Z,-0.06
2023-02-18T06:37:26.679Z,-0.24
2023-02-18T06:40:32.936Z,0.18
2023-02-18T06:43:39.662Z,-0.01
2023-02-18T06:46:47.446Z,0.04
2023-02-18T06:49:53.688Z,-0.41
2023-02-18T06:53:00.438Z,-0.23
2023-02-18T06:56:06.874Z,-0.15
2023-02-18T06:59:14.040Z,0.34
2023-02-18T07:02:21.809Z,0.56
2023-02-18T07:05:27.867Z,0.58
2023-02-18T07:08:36.344Z,1.17
2023-02-18T07:11:42.553Z,1.61
2023-02-18T07:14:48.521Z,0.95
2023-02-18T07:17:56.602Z,2.01
2023-02-18T07:21:03.169Z,2.42
2023-02-18T07:24:09.578Z,1.87
2023-02-18T07:27:15.975Z,2.98
2023-02-18T07:30:22.965Z,2.74
2023-02-18T07:33:30.659Z,2.84
2023-02-18T07:36:37.279Z,3.24
2023-02-18T07:39:44.403Z,3.09
2023-02-18T07:42:50.941Z,3.53
2023-02-18T07:45:57.156Z,4.10
2023-02-18T07:49:04.934Z,4.87
2023-02-18T07:52:11.526Z,4.83
2023-02-18T07:55:17.940Z,5.20
2023-02-18T07:58:25.694Z,5.78
2023-02-18T08:01:31.774Z,5.55
2023-02-18T08:04:39.298Z,5.81
2023-02-18T08:07:45.956Z,5.69
2023-02-18T08:10:54.083Z,5.55
2023-02-18T08:14:00.216Z,6.32
2023-02-18T08:17:06.424Z,6.45
2023-02-18T08:20:14.837Z,6.55
2023-02-18T08:23:22.605Z,6.32
2023-02-18T08:26:30.735Z,5.77
2023-02-18T08:29:37.434Z,5.85
2023-02-18T08:32:43.686Z,6.04
2023-02-18T08:35:53.337Z,6.48
2023-02-18T08:39:00.053Z,6.39
2023-02-18T08:42:06.585Z,6.80
2023-02-18T08:45:12.991Z,6.90
2023-02-18T08:48:20.574Z,7.63
2023-02-18T08:51:28.657Z,7.49
2023-02-18T08:54:34.608Z,8.14
2023-02-18T08:57:40.904Z,7.99
2023-02-18T09:00:47.676Z,8.56
2023-02-18T09:03:53.988Z,8.83
2023-02-18T09:07:01.478Z,8.80
2023-02-18T09:10:09.346Z,8.85
2023-02-18T09:13:15.679Z,9.14
2023-02-18T09:16:23.072Z,9.28
2023-02-18T09:19:31.072Z,9.60
2023-02-18T09:22:38.765Z,10.17
2023-02-18T09:25:45.273Z,10.32
2023-02-18T09:28:52.646Z,10.77
2023-02-18T09:32:01.640Z,11.21
2023-02-18T09:35:08.230Z,11.46
2023-02-18T09:38:18.197Z,12.70
2023-02-18T09:41:31.470Z,12.05
2023-02-18T09:44:43.618Z,12.08
2023-02-18T09:47:51.650Z,11.96
2023-02-18T09:50:58.003Z,11.95
2023-02-18T09:54:06.098Z,12.99
2023-02-18T09:57:24.142Z,12.91
2023-02-18T10:00:35.220Z,13.40
2023-02-18T10:03:43.913Z,13.88
2023-02-18T10:06:52.797Z,13.53
2023-02-18T10:10:05.251Z,13.20
2023-02-18T10:13:15.394Z,13.42
2023-02-18T10:16:23.485Z,13.73
2023-02-18T10:19:34.795Z,14.16
2023-02-18T10:22:41.146Z,14.00
2023-02-18T10:25:50.622Z,14.35
2023-02-18T10:28:57.287Z,14.12
2023-02-18T10:32:14.624Z,14.02
2023-02-18T10:35:25.983Z,14.05
2023-02-18T10:38:44.904Z,14.08
2023-02-18T10:42:02.450Z,13.75
2023-02-18T10:45:21.022Z,13.89
2023-02-18T10:48:43.844Z,14.22
2023-02-18T10:51:54.092Z,13.87
2023-02-18T10:55:05.269Z,14.73
2023-02-18T10:58:33.709Z,15.25
2023-02-18T11:01:40.393Z,14.95
2023-02-18T11:04:48.089Z,14.75
2023-02-18T11:07:57.952Z,14.38
2023-02-18T11:11:14.578Z,14.72
2023-02-18T11:14:44.615Z,14.73
2023-02-18T11:17:52.850Z,14.77
2023-02-18T11:21:00.773Z,14.94
2023-02-18T11:24:10.613Z,14.96
2023-02-18T11:27:29.678Z,14.69
2023-02-18T11:30:40.481Z,15.00
2023-02-18T11:33:51.741Z,15.94
2023-02-18T11:37:10.841Z,16.19
2023-02-18T11:40:24.241Z,16.28
2023-02-18T11:43:32.792Z,16.09
2023-02-18T11:46:40.360Z,16.22
2023-02-18T11:50:01.421Z,16.16
2023-02-18T11:53:28.831Z,16.39
2023-02-18T11:56:37.231Z,16.30
2023-02-18T11:59:44.878Z,16.19
2023-02-18T12:02:54.385Z,15.91
2023-02-18T12:06:05.998Z,15.84
2023-02-18T12:09:22.068Z,15.68
2023-02-18T12:12:31.724Z,15.67
2023-02-18T12:15:54.610Z,15.40
2023-02-18T12:19:21.440Z,15.42
2023-02-18T12:22:40.099Z,15.27
2023-02-18T12:25:56.304Z,15.49
2023-02-18T12:29:17.941Z,15.98
2023-02-18T12:32:37.730Z,16.17
2023-02-18T12:36:05.605Z,16.48
2023-02-18T12:39:18.636Z,16.72
2023-02-18T12:42:36.368Z,16.98
2023-02-18T12:46:08.665Z,16.84
2023-02-18T12:49:34.680Z,16.85
2023-02-18T12:52:52.902Z,16.46
2023-02-18T12:56:26.222Z,16.25
2023-02-18T12:59:58.366Z,16.30
2023-02-18T13:03:36.432Z,16.19
2023-02-18T13:06:55.220Z,16.10
2023-02-18T13:10:30.388Z,16.42
2023-02-18T13:13:41.953Z,16.43
2023-02-18T13:16:52.226Z,16.51
2023-02-18T13:20:04.270Z,16.31
2023-02-18T13:23:20.603Z,16.43
2023-02-18T13:26:31.280Z,16.27
2023-02-18T13:29:46.247Z,15.71
2023-02-18T13:33:06.871Z,15.58
2023-02-18T13:36:26.682Z,16.39
2023-02-18T13:39:34.110Z,16.40
2023-02-18T13:42:42.273Z,16.63
2023-02-18T13:46:05.061Z,16.78
2023-02-18T13:49:14.250Z,16.75
2023-02-18T13:52:21.805Z,16.18
2023-02-18T13:55:41.180Z,16.29
2023-02-18T13:58:51.923Z,16.15
2023-02-18T14:02:29.529Z,16.23
2023-02-18T14:05:41.647Z,15.51
2023-02-18T14:08:48.846Z,16.12
2023-02-18T14:11:57.953Z,16.32
2023-02-18T14:15:23.594Z,16.10
2023-02-18T14:18:57.256Z,15.58
2023-02-18T14:22:28.466Z,15.92
2023-02-18T14:25:42.038Z,15.69
2023-02-18T14:28:56.055Z,15.77
2023-02-18T14:32:05.438Z,15.29
2023-02-18T14:35:32.025Z,15.61
2023-02-18T14:38:49.860Z,15.16
2023-02-18T14:42:01.984Z,15.05
2023-02-18T14:45:23.396Z,14.71
2023-02-18T14:48:56.985Z,14.78
2023-02-18T14:52:07.608Z,14.76
2023-02-18T14:55:21.787Z,14.85
2023-02-18T14:58:33.182Z,14.92
2023-02-18T15:01:40.483Z,14.59
2023-02-18T15:04:48.139Z,14.57
2023-02-18T15:07:59.175Z,14.31
2023-02-18T15:11:07.644Z,14.25
2023-02-18T15:14:20.208Z,14.20
2023-02-18T15:17:28.557Z,14.07
2023-02-18T15:20:36.921Z,13.89
2023-02-18T15:23:43.568Z,13.72
2023-02-18T15:26:52.157Z,13.59
2023-02-18T15:30:00.125Z,13.69
2023-02-18T15:33:14.380Z,13.43
2023-02-18T15:36:22.283Z,13.57
2023-02-18T15:39:28.932Z,13.38
2023-02-18T15:42:37.605Z,13.43
2023-02-18T15:45:45.587Z,13.31
2023-02-18T15:48:52.596Z,13.09
2023-02-18T15:52:02.070Z,12.90
2023-02-18T15:55:15.027Z,12.32
2023-02-18T15:58:25.297Z,11.78
2023-02-18T16:01:32.262Z,11.58
2023-02-18T16:04:41.476Z,11.51
2023-02-18T16:07:54.639Z,11.57
2023-02-18T16:11:04.868Z,11.50
2023-02-18T16:14:25.552Z,11.63
2023-02-18T16:17:32.437Z,11.28
2023-02-18T16:20:42.052Z,11.04
2023-02-18T16:23:58.040Z,11.03
2023-02-18T16:27:08.157Z,10.65
2023-02-18T16:30:17.992Z,10.38
2023-02-18T16:33:24.522Z,10.23
2023-02-18T16:36:30.732Z,10.31
2023-02-18T16:39:38.647Z,10.64
2023-02-18T16:42:45.111Z,10.45
2023-02-18T16:45:53.324Z,9.98
2023-02-18T16:49:00.388Z,9.17
2023-02-18T16:52:09.461Z,9.61
2023-02-18T16:55:21.138Z,9.69
2023-02-18T16:58:27.794Z,9.53
2023-02-18T17:01:38.294Z,9.63
2023-02-18T17:04:44.742Z,8.92
2023-02-18T17:07:51.205Z,9.01
2023-02-18T17:11:00.045Z,8.93
2023-02-18T17:14:06.571Z,9.17
2023-02-18T17:17:14.766Z,8.82
2023-02-18T17:20:21.924Z,8.62
2023-02-18T17:23:28.294Z,8.57
2023-02-18T17:26:35.974Z,8.60
2023-02-18T17:29:42.546Z,8.86
2023-02-18T17:32:49.403Z,8.57
2023-02-18T17:35:55.651Z,8.97
2023-02-18T17:39:02.838Z,8.85
2023-02-18T17:45:44.410Z,8.13
2023-02-18T17:48:50.784Z,8.10
2023-02-18T17:51:58.177Z,7.86
2023-02-18T17:55:16.300Z,7.68
2023-02-18T17:58:24.123Z,7.91
2023-02-18T18:01:30.476Z,8.10
2023-02-18T18:04:36.758Z,8.20
2023-02-18T18:07:43.043Z,8.05
2023-02-18T18:10:52.632Z,9.39
2023-02-18T18:14:00.613Z,10.32
2023-02-18T18:17:11.399Z,10.72
2023-02-18T18:20:18.484Z,10.93
2023-02-18T18:23:24.782Z,10.58
2023-02-18T18:26:31.679Z,10.08
2023-02-18T18:29:39.705Z,9.66
2023-02-18T18:32:46.327Z,9.70
2023-02-18T18:35:54.403Z,10.83
2023-02-18T18:39:01.006Z,11.18
2023-02-18T18:42:07.807Z,11.32
2023-02-18T18:45:21.519Z,11.58
2023-02-18T18:48:27.755Z,11.25
2023-02-18T18:51:34.355Z,11.34
2023-02-18T18:54:41.410Z,11.43
2023-02-18T18:57:48.367Z,11.17
2023-02-18T19:00:58.797Z,10.64
2023-02-18T19:04:05.616Z,10.01
2023-02-18T19:07:12.149Z,10.67
2023-02-18T19:10:19.596Z,9.62
2023-02-18T19:13:28.597Z,9.06
2023-02-18T19:16:39.580Z,8.76
2023-02-18T19:19:45.893Z,8.64
2023-02-18T19:22:52.346Z,8.62
2023-02-18T19:25:59.286Z,8.85
2023-02-18T19:29:05.986Z,8.68
2023-02-18T19:32:13.793Z,8.36
2023-02-18T19:35:20.814Z,8.27
2023-02-18T19:38:27.068Z,7.99
2023-02-18T19:41:33.695Z,7.75
2023-02-18T19:44:40.313Z,7.42
2023-02-18T19:47:48.907Z,7.19
2023-02-18T19:50:55.538Z,7.04
2023-02-18T19:54:02.081Z,6.80
2023-02-18T19:57:08.917Z,6.75
2023-02-18T20:00:17.941Z,6.68
2023-02-18T20:03:25.664Z,6.62
2023-02-18T20:06:32.035Z,6.34
2023-02-18T20:09:38.397Z,6.36
2023-02-18T20:12:45.311Z,6.54
2023-02-18T20:15:51.948Z,6.62
2023-02-18T20:19:00.020Z,6.40
2023-02-18T20:22:07.532Z,6.33
2023-02-18T20:25:14.065Z,6.11
2023-02-18T20:28:20.432Z,6.11
2023-02-18T20:31:27.188Z,6.32
2023-02-18T20:34:35.156Z,6.21
2023-02-18T20:37:41.769Z,5.90
2023-02-18T20:40:48.388Z,5.96
2023-02-18T20:43:54.630Z,6.06
2023-02-18T20:47:01.029Z,5.84
2023-02-18T20:50:09.006Z,6.07
2023-02-18T20:53:15.413Z,5.91
2023-02-18T20:56:22.875Z,5.85
2023-02-18T20:59:30.209Z,5.89
2023-02-18T21:02:36.621Z,5.87
2023-02-18T21:05:44.027Z,5.66
2023-02-18T21:08:54.360Z,5.64
2023-02-18T21:12:00.239Z,5.67
2023-02-18T21:15:06.815Z,5.61
2023-02-18T21:18:12.964Z,5.40
2023-02-18T21:21:23.135Z,5.41
2023-02-18T21:24:29.512Z,5.58
2023-02-18T21:27:36.055Z,5.49
2023-02-18T21:30:44.173Z,5.53
2023-02-18T21:33:50.770Z,5.40
2023-02-18T21:36:58.537Z,5.46
2023-02-18T21:40:05.255Z,5.26
2023-02-18T21:43:12.474Z,5.21
2023-02-18T21:46:21.738Z,5.19
2023-02-18T21:49:27.953Z,5.05
2023-02-18T21:52:35.597Z,5.07
2023-02-18T21:55:42.670Z,4.78
2023-02-18T21:58:49.785Z,4.98
2023-02-18T22:01:57.409Z,5.01
2023-02-18T22:05:08.206Z,4.95
2023-02-18T22:08:16.006Z,4.63
2023-02-18T22:11:22.261Z,4.67
2023-02-18T22:14:28.790Z,4.68
2023-02-18T22:17:35.130Z,4.57
2023-02-18T22:20:41.609Z,4.45
2023-02-18T22:23:49.561Z,4.44
2023-02-18T22:26:56.026Z,4.42
2023-02-18T22:30:02.726Z,4.33
2023-02-18T22:33:09.340Z,4.41
2023-02-18T22:36:16.133Z,4.28
2023-02-18T22:39:24.499Z,4.30
2023-02-18T22:42:31.353Z,3.83
2023-02-18T22:45:37.736Z,3.40
2023-02-18T22:48:44.764Z,3.46
2023-02-18T22:51:53.746Z,3.92
2023-02-18T22:55:01.322Z,3.67
2023-02-18T22:58:07.573Z,3.82
2023-02-18T23:01:21.902Z,3.85
2023-02-18T23:04:28.610Z,3.61
2023-02-18T23:07:35.102Z,3.72
2023-02-18T23:10:42.844Z,3.66
2023-02-18T23:14:10.556Z,3.35
2023-02-18T23:17:18.076Z,3.16
2023-02-18T23:20:38.003Z,3.00
2023-02-18T23:23:44.874Z,3.51
2023-02-18T23:26:52.687Z,3.50
2023-02-18T23:29:59.125Z,3.38
2023-02-18T23:33:05.396Z,3.39
2023-02-18T23:36:14.041Z,2.76
2023-02-18T23:39:22.750Z,2.71
2023-02-18T23:42:30.594Z,3.54
2023-02-18T23:45:37.249Z,3.32
2023-02-18T23:48:43.888Z,3.13
2023-02-18T23:51:50.547Z,3.10
2023-02-18T23:54:56.892Z,3.17
2023-02-18T23:58:04.435Z,2.81
